sensor_id;sensor_type;location;lat;lon;timestamp;temperature;humidity
14031;DHT22;7090;49.436;8.490;2023-05-10T00:01:57;14.00;99.90
14031;DHT22;7090;49.436;8.490;2023-05-10T00:04:23;14.00;99.90
14031;DHT22;7090;49.436;8.490;2023-05-10T00:06:52;14.00;99.90
14031;DHT22;7090;49.436;8.490;2023-05-10T00:09:18;13.90;99.90
14031;DHT22;7090;49.436;8.490;2023-05-10T00:11:44;13.90;99.90
14031;DHT22;7090;49.436;8.490;2023-05-10T00:14:09;13.90;99.90
14031;DHT22;7090;49.436;8.490;2023-05-10T00:16:35;13.90;99.90
14031;DHT22;7090;49.436;8.490;2023-05-10T00:19:00;13.90;99.90
14031;DHT22;7090;49.436;8.490;2023-05-10T00:21:26;13.80;99.90
14031;DHT22;7090;49.436;8.490;2023-05-10T00:23:53;13.80;99.90
14031;DHT22;7090;49.436;8.490;2023-05-10T00:26:19;13.90;99.90
14031;DHT22;7090;49.436;8.490;2023-05-10T00:28:45;13.80;99.90
14031;DHT22;7090;49.436;8.490;2023-05-10T00:31:10;13.80;99.90
14031;DHT22;7090;49.436;8.490;2023-05-10T00:33:36;13.70;99.90
14031;DHT22;7090;49.436;8.490;2023-05-10T00:36:01;13.70;99.90
14031;DHT22;7090;49.436;8.490;2023-05-10T00:38:27;13.70;99.90
14031;DHT22;7090;49.436;8.490;2023-05-10T00:40:53;13.70;99.90
14031;DHT22;7090;49.436;8.490;2023-05-10T00:43:18;13.70;99.90
14031;DHT22;7090;49.436;8.490;2023-05-10T00:45:44;13.70;99.90
14031;DHT22;7090;49.436;8.490;2023-05-10T00:48:10;13.70;99.90
14031;DHT22;7090;49.436;8.490;2023-05-10T00:50:35;13.60;99.90
14031;DHT22;7090;49.436;8.490;2023-05-10T00:53:02;13.60;99.90
14031;DHT22;7090;49.436;8.490;2023-05-10T00:55:28;13.50;99.90
14031;DHT22;7090;49.436;8.490;2023-05-10T00:57:54;13.50;99.90
14031;DHT22;7090;49.436;8.490;2023-05-10T01:00:20;13.50;99.90
14031;DHT22;7090;49.436;8.490;2023-05-10T01:02:46;13.40;99.90
14031;DHT22;7090;49.436;8.490;2023-05-10T01:05:12;13.40;99.90
14031;DHT22;7090;49.436;8.490;2023-05-10T01:07:38;13.40;99.90
14031;DHT22;7090;49.436;8.490;2023-05-10T01:10:05;13.40;99.90
14031;DHT22;7090;49.436;8.490;2023-05-10T01:12:31;13.40;99.90
14031;DHT22;7090;49.436;8.490;2023-05-10T01:14:57;13.40;99.90
14031;DHT22;7090;49.436;8.490;2023-05-10T01:17:23;13.40;99.90
14031;DHT22;7090;49.436;8.490;2023-05-10T01:19:50;13.40;99.90
14031;DHT22;7090;49.436;8.490;2023-05-10T01:28:13;13.40;99.90
14031;DHT22;7090;49.436;8.490;2023-05-10T01:33:24;13.30;99.90
14031;DHT22;7090;49.436;8.490;2023-05-10T01:36:01;13.30;99.90
14031;DHT22;7090;49.436;8.490;2023-05-10T01:38:38;13.30;99.90
14031;DHT22;7090;49.436;8.490;2023-05-10T01:41:17;13.30;99.90
14031;DHT22;7090;49.436;8.490;2023-05-10T01:43:57;13.30;99.90
14031;DHT22;7090;49.436;8.490;2023-05-10T01:46:43;13.30;99.90
14031;DHT22;7090;49.436;8.490;2023-05-10T01:49:29;13.30;99.90
14031;DHT22;7090;49.436;8.490;2023-05-10T01:52:04;13.30;99.90
14031;DHT22;7090;49.436;8.490;2023-05-10T01:54:33;13.30;99.90
14031;DHT22;7090;49.436;8.490;2023-05-10T01:57:03;13.40;99.90
14031;DHT22;7090;49.436;8.490;2023-05-10T01:59:33;13.30;99.90
14031;DHT22;7090;49.436;8.490;2023-05-10T02:02:02;13.30;99.90
14031;DHT22;7090;49.436;8.490;2023-05-10T02:04:30;13.30;99.90
14031;DHT22;7090;49.436;8.490;2023-05-10T02:06:56;13.30;99.90
14031;DHT22;7090;49.436;8.490;2023-05-10T02:09:23;13.30;99.90
14031;DHT22;7090;49.436;8.490;2023-05-10T02:11:51;13.30;99.90
14031;DHT22;7090;49.436;8.490;2023-05-10T02:14:18;13.30;99.90
14031;DHT22;7090;49.436;8.490;2023-05-10T02:16:44;13.20;99.90
14031;DHT22;7090;49.436;8.490;2023-05-10T02:19:12;13.20;99.90
14031;DHT22;7090;49.436;8.490;2023-05-10T02:21:39;13.20;99.90
14031;DHT22;7090;49.436;8.490;2023-05-10T02:24:05;13.20;99.90
14031;DHT22;7090;49.436;8.490;2023-05-10T02:26:34;13.20;99.90
14031;DHT22;7090;49.436;8.490;2023-05-10T02:29:02;13.10;99.90
14031;DHT22;7090;49.436;8.490;2023-05-10T02:31:30;13.10;99.90
14031;DHT22;7090;49.436;8.490;2023-05-10T02:33:57;13.10;99.90
14031;DHT22;7090;49.436;8.490;2023-05-10T02:36:23;13.10;99.90
14031;DHT22;7090;49.436;8.490;2023-05-10T02:38:50;13.10;99.90
14031;DHT22;7090;49.436;8.490;2023-05-10T02:41:18;13.10;99.90
14031;DHT22;7090;49.436;8.490;2023-05-10T02:43:45;13.10;99.90
14031;DHT22;7090;49.436;8.490;2023-05-10T02:46:12;13.10;99.90
14031;DHT22;7090;49.436;8.490;2023-05-10T02:48:38;13.10;99.90
14031;DHT22;7090;49.436;8.490;2023-05-10T02:51:05;13.10;99.90
14031;DHT22;7090;49.436;8.490;2023-05-10T02:53:35;13.10;99.90
14031;DHT22;7090;49.436;8.490;2023-05-10T02:56:05;13.10;99.90
14031;DHT22;7090;49.436;8.490;2023-05-10T02:58:34;13.20;99.90
14031;DHT22;7090;49.436;8.490;2023-05-10T03:01:00;13.10;99.90
14031;DHT22;7090;49.436;8.490;2023-05-10T03:03:26;13.10;99.90
14031;DHT22;7090;49.436;8.490;2023-05-10T03:05:51;13.10;99.90
14031;DHT22;7090;49.436;8.490;2023-05-10T03:08:21;13.20;99.90
14031;DHT22;7090;49.436;8.490;2023-05-10T03:17:06;13.20;99.90
14031;DHT22;7090;49.436;8.490;2023-05-10T03:19:54;13.20;99.90
14031;DHT22;7090;49.436;8.490;2023-05-10T03:22:30;13.20;99.90
14031;DHT22;7090;49.436;8.490;2023-05-10T03:24:56;13.20;99.90
14031;DHT22;7090;49.436;8.490;2023-05-10T03:27:25;13.20;99.90
14031;DHT22;7090;49.436;8.490;2023-05-10T03:29:52;13.20;99.90
14031;DHT22;7090;49.436;8.490;2023-05-10T03:32:18;13.20;99.90
14031;DHT22;7090;49.436;8.490;2023-05-10T03:34:43;13.20;99.90
14031;DHT22;7090;49.436;8.490;2023-05-10T03:37:09;13.10;99.90
14031;DHT22;7090;49.436;8.490;2023-05-10T03:39:35;13.10;99.90
14031;DHT22;7090;49.436;8.490;2023-05-10T03:42:01;13.10;99.90
14031;DHT22;7090;49.436;8.490;2023-05-10T03:44:27;13.00;99.90
14031;DHT22;7090;49.436;8.490;2023-05-10T03:46:52;13.00;99.90
14031;DHT22;7090;49.436;8.490;2023-05-10T03:49:18;13.00;99.90
14031;DHT22;7090;49.436;8.490;2023-05-10T03:51:44;13.00;99.90
14031;DHT22;7090;49.436;8.490;2023-05-10T03:54:09;12.90;99.90
14031;DHT22;7090;49.436;8.490;2023-05-10T03:56:35;12.90;99.90
14031;DHT22;7090;49.436;8.490;2023-05-10T03:59:01;12.90;99.90
14031;DHT22;7090;49.436;8.490;2023-05-10T04:01:26;12.90;99.90
14031;DHT22;7090;49.436;8.490;2023-05-10T04:03:52;12.80;99.90
14031;DHT22;7090;49.436;8.490;2023-05-10T04:06:17;12.80;99.90
14031;DHT22;7090;49.436;8.490;2023-05-10T04:08:43;12.80;99.90
14031;DHT22;7090;49.436;8.490;2023-05-10T04:11:10;12.80;99.90
14031;DHT22;7090;49.436;8.490;2023-05-10T04:13:36;12.70;99.90
14031;DHT22;7090;49.436;8.490;2023-05-10T04:16:02;12.70;99.90
14031;DHT22;7090;49.436;8.490;2023-05-10T04:18:28;12.70;99.90
14031;DHT22;7090;49.436;8.490;2023-05-10T04:20:53;12.70;99.90
14031;DHT22;7090;49.436;8.490;2023-05-10T04:23:19;12.70;99.90
14031;DHT22;7090;49.436;8.490;2023-05-10T04:25:45;12.70;99.90
14031;DHT22;7090;49.436;8.490;2023-05-10T04:28:10;12.70;99.90
14031;DHT22;7090;49.436;8.490;2023-05-10T04:30:36;12.70;99.90
14031;DHT22;7090;49.436;8.490;2023-05-10T04:33:01;12.70;99.90
14031;DHT22;7090;49.436;8.490;2023-05-10T04:35:27;12.80;99.90
14031;DHT22;7090;49.436;8.490;2023-05-10T04:37:54;12.80;99.90
14031;DHT22;7090;49.436;8.490;2023-05-10T04:40:19;12.80;99.90
14031;DHT22;7090;49.436;8.490;2023-05-10T04:42:45;12.80;99.90
14031;DHT22;7090;49.436;8.490;2023-05-10T04:45:11;12.80;99.90
14031;DHT22;7090;49.436;8.490;2023-05-10T04:47:37;12.80;99.90
14031;DHT22;7090;49.436;8.490;2023-05-10T04:50:03;12.80;99.90
14031;DHT22;7090;49.436;8.490;2023-05-10T04:52:29;12.80;99.90
14031;DHT22;7090;49.436;8.490;2023-05-10T04:54:55;12.80;99.90
14031;DHT22;7090;49.436;8.490;2023-05-10T04:57:20;12.80;99.90
14031;DHT22;7090;49.436;8.490;2023-05-10T04:59:47;12.80;99.90
14031;DHT22;7090;49.436;8.490;2023-05-10T05:02:13;12.80;99.90
14031;DHT22;7090;49.436;8.490;2023-05-10T05:04:38;12.90;99.90
14031;DHT22;7090;49.436;8.490;2023-05-10T05:07:04;12.90;99.90
14031;DHT22;7090;49.436;8.490;2023-05-10T05:09:31;12.90;99.90
14031;DHT22;7090;49.436;8.490;2023-05-10T05:11:57;12.80;99.90
14031;DHT22;7090;49.436;8.490;2023-05-10T05:14:23;12.90;99.90
14031;DHT22;7090;49.436;8.490;2023-05-10T05:16:51;13.00;99.90
14031;DHT22;7090;49.436;8.490;2023-05-10T05:19:16;13.00;99.90
14031;DHT22;7090;49.436;8.490;2023-05-10T05:21:42;13.00;99.90
14031;DHT22;7090;49.436;8.490;2023-05-10T05:24:07;13.10;99.90
14031;DHT22;7090;49.436;8.490;2023-05-10T05:26:33;13.10;99.90
14031;DHT22;7090;49.436;8.490;2023-05-10T05:28:59;13.10;99.90
14031;DHT22;7090;49.436;8.490;2023-05-10T05:31:24;13.10;99.90
14031;DHT22;7090;49.436;8.490;2023-05-10T05:33:50;13.20;99.90
14031;DHT22;7090;49.436;8.490;2023-05-10T05:36:16;13.20;99.90
14031;DHT22;7090;49.436;8.490;2023-05-10T05:38:41;13.30;99.90
14031;DHT22;7090;49.436;8.490;2023-05-10T05:41:08;13.40;99.90
14031;DHT22;7090;49.436;8.490;2023-05-10T05:43:33;13.40;99.90
14031;DHT22;7090;49.436;8.490;2023-05-10T05:45:59;13.50;99.90
14031;DHT22;7090;49.436;8.490;2023-05-10T05:48:25;13.60;99.90
14031;DHT22;7090;49.436;8.490;2023-05-10T05:50:54;13.60;99.90
14031;DHT22;7090;49.436;8.490;2023-05-10T05:53:21;13.70;99.90
14031;DHT22;7090;49.436;8.490;2023-05-10T05:55:57;13.80;99.90
14031;DHT22;7090;49.436;8.490;2023-05-10T05:58:23;13.80;99.90
14031;DHT22;7090;49.436;8.490;2023-05-10T06:00:50;13.90;99.90
14031;DHT22;7090;49.436;8.490;2023-05-10T06:03:15;13.90;99.90
14031;DHT22;7090;49.436;8.490;2023-05-10T06:05:41;14.00;99.90
14031;DHT22;7090;49.436;8.490;2023-05-10T06:08:07;14.00;99.90
14031;DHT22;7090;49.436;8.490;2023-05-10T06:10:32;14.00;99.90
14031;DHT22;7090;49.436;8.490;2023-05-10T06:12:58;14.10;99.90
14031;DHT22;7090;49.436;8.490;2023-05-10T06:15:23;14.10;99.90
14031;DHT22;7090;49.436;8.490;2023-05-10T06:17:49;14.10;99.90
14031;DHT22;7090;49.436;8.490;2023-05-10T06:20:15;14.30;99.90
14031;DHT22;7090;49.436;8.490;2023-05-10T06:22:41;14.20;99.90
14031;DHT22;7090;49.436;8.490;2023-05-10T06:25:07;14.20;99.90
14031;DHT22;7090;49.436;8.490;2023-05-10T06:27:33;14.30;99.90
14031;DHT22;7090;49.436;8.490;2023-05-10T06:29:58;14.30;99.90
14031;DHT22;7090;49.436;8.490;2023-05-10T06:32:24;14.40;99.90
14031;DHT22;7090;49.436;8.490;2023-05-10T06:34:50;14.30;99.90
14031;DHT22;7090;49.436;8.490;2023-05-10T06:37:15;14.40;99.90
14031;DHT22;7090;49.436;8.490;2023-05-10T06:39:41;14.50;99.90
14031;DHT22;7090;49.436;8.490;2023-05-10T06:42:06;14.50;99.90
14031;DHT22;7090;49.436;8.490;2023-05-10T06:44:32;14.50;99.90
14031;DHT22;7090;49.436;8.490;2023-05-10T06:46:57;14.40;99.90
14031;DHT22;7090;49.436;8.490;2023-05-10T06:49:23;14.30;99.90
14031;DHT22;7090;49.436;8.490;2023-05-10T06:51:49;14.30;99.90
14031;DHT22;7090;49.436;8.490;2023-05-10T06:54:14;14.40;99.90
14031;DHT22;7090;49.436;8.490;2023-05-10T06:56:40;14.50;99.90
14031;DHT22;7090;49.436;8.490;2023-05-10T06:59:05;14.50;99.90
14031;DHT22;7090;49.436;8.490;2023-05-10T07:01:31;14.50;99.90
14031;DHT22;7090;49.436;8.490;2023-05-10T07:03:57;14.60;99.90
14031;DHT22;7090;49.436;8.490;2023-05-10T07:06:23;14.70;99.90
14031;DHT22;7090;49.436;8.490;2023-05-10T07:08:48;14.90;99.90
14031;DHT22;7090;49.436;8.490;2023-05-10T07:11:14;15.10;99.90
14031;DHT22;7090;49.436;8.490;2023-05-10T07:13:39;15.10;99.90
14031;DHT22;7090;49.436;8.490;2023-05-10T07:16:09;15.10;99.90
14031;DHT22;7090;49.436;8.490;2023-05-10T07:18:35;15.10;99.90
14031;DHT22;7090;49.436;8.490;2023-05-10T07:21:01;15.10;99.90
14031;DHT22;7090;49.436;8.490;2023-05-10T07:23:27;15.10;99.90
14031;DHT22;7090;49.436;8.490;2023-05-10T07:25:53;15.10;99.90
14031;DHT22;7090;49.436;8.490;2023-05-10T07:28:19;15.10;99.90
14031;DHT22;7090;49.436;8.490;2023-05-10T07:30:45;15.30;99.90
14031;DHT22;7090;49.436;8.490;2023-05-10T07:33:13;15.40;99.90
14031;DHT22;7090;49.436;8.490;2023-05-10T07:35:39;15.60;99.90
14031;DHT22;7090;49.436;8.490;2023-05-10T07:38:04;15.60;99.90
14031;DHT22;7090;49.436;8.490;2023-05-10T07:40:30;15.60;99.90
14031;DHT22;7090;49.436;8.490;2023-05-10T07:42:56;15.80;99.90
14031;DHT22;7090;49.436;8.490;2023-05-10T07:45:22;15.70;99.90
14031;DHT22;7090;49.436;8.490;2023-05-10T07:47:48;15.60;99.90
14031;DHT22;7090;49.436;8.490;2023-05-10T07:50:13;15.80;99.90
14031;DHT22;7090;49.436;8.490;2023-05-10T07:52:39;16.00;99.90
14031;DHT22;7090;49.436;8.490;2023-05-10T07:55:06;16.40;99.90
14031;DHT22;7090;49.436;8.490;2023-05-10T07:57:35;16.70;99.90
14031;DHT22;7090;49.436;8.490;2023-05-10T08:00:02;16.90;99.90
14031;DHT22;7090;49.436;8.490;2023-05-10T08:02:27;16.60;99.90
14031;DHT22;7090;49.436;8.490;2023-05-10T08:04:53;16.80;99.90
14031;DHT22;7090;49.436;8.490;2023-05-10T08:07:19;16.70;99.90
14031;DHT22;7090;49.436;8.490;2023-05-10T08:09:44;16.80;99.90
14031;DHT22;7090;49.436;8.490;2023-05-10T08:12:10;16.80;99.90
14031;DHT22;7090;49.436;8.490;2023-05-10T08:14:36;16.90;99.90
14031;DHT22;7090;49.436;8.490;2023-05-10T08:17:04;17.30;99.90
14031;DHT22;7090;49.436;8.490;2023-05-10T08:19:30;17.40;99.90
14031;DHT22;7090;49.436;8.490;2023-05-10T08:21:56;17.10;99.90
14031;DHT22;7090;49.436;8.490;2023-05-10T08:24:22;17.00;99.90
14031;DHT22;7090;49.436;8.490;2023-05-10T08:26:48;16.80;99.90
14031;DHT22;7090;49.436;8.490;2023-05-10T08:29:14;16.60;99.90
14031;DHT22;7090;49.436;8.490;2023-05-10T08:31:40;16.50;99.90
14031;DHT22;7090;49.436;8.490;2023-05-10T08:34:05;16.40;99.90
14031;DHT22;7090;49.436;8.490;2023-05-10T08:36:31;16.30;99.90
14031;DHT22;7090;49.436;8.490;2023-05-10T08:38:57;16.20;99.90
14031;DHT22;7090;49.436;8.490;2023-05-10T08:41:23;16.30;99.90
14031;DHT22;7090;49.436;8.490;2023-05-10T08:43:51;16.20;99.90
14031;DHT22;7090;49.436;8.490;2023-05-10T08:46:19;16.00;99.90
14031;DHT22;7090;49.436;8.490;2023-05-10T08:48:46;16.10;99.90
14031;DHT22;7090;49.436;8.490;2023-05-10T08:51:22;16.20;99.90
14031;DHT22;7090;49.436;8.490;2023-05-10T08:53:49;16.30;99.90
14031;DHT22;7090;49.436;8.490;2023-05-10T08:56:15;16.20;99.90
14031;DHT22;7090;49.436;8.490;2023-05-10T08:58:43;16.20;99.90
14031;DHT22;7090;49.436;8.490;2023-05-10T09:01:09;16.20;99.90
14031;DHT22;7090;49.436;8.490;2023-05-10T09:03:40;16.20;99.90
14031;DHT22;7090;49.436;8.490;2023-05-10T09:06:06;15.90;99.90
14031;DHT22;7090;49.436;8.490;2023-05-10T09:08:33;15.90;99.90
14031;DHT22;7090;49.436;8.490;2023-05-10T09:11:00;15.90;99.90
14031;DHT22;7090;49.436;8.490;2023-05-10T09:13:27;16.00;99.90
14031;DHT22;7090;49.436;8.490;2023-05-10T09:15:53;16.10;99.90
14031;DHT22;7090;49.436;8.490;2023-05-10T09:18:19;16.20;99.90
14031;DHT22;7090;49.436;8.490;2023-05-10T09:20:45;16.20;99.90
14031;DHT22;7090;49.436;8.490;2023-05-10T09:23:10;16.20;99.90
14031;DHT22;7090;49.436;8.490;2023-05-10T09:25:36;16.10;99.90
14031;DHT22;7090;49.436;8.490;2023-05-10T09:28:06;16.20;99.90
14031;DHT22;7090;49.436;8.490;2023-05-10T09:30:31;16.10;99.90
14031;DHT22;7090;49.436;8.490;2023-05-10T09:32:58;16.30;99.90
14031;DHT22;7090;49.436;8.490;2023-05-10T09:35:26;16.10;99.90
14031;DHT22;7090;49.436;8.490;2023-05-10T09:37:53;15.80;99.90
14031;DHT22;7090;49.436;8.490;2023-05-10T09:40:26;15.50;99.90
14031;DHT22;7090;49.436;8.490;2023-05-10T09:43:07;15.40;99.90
14031;DHT22;7090;49.436;8.490;2023-05-10T09:45:35;15.40;99.90
14031;DHT22;7090;49.436;8.490;2023-05-10T09:48:02;15.50;99.90
14031;DHT22;7090;49.436;8.490;2023-05-10T09:50:28;15.70;99.90
14031;DHT22;7090;49.436;8.490;2023-05-10T09:52:58;15.80;99.90
14031;DHT22;7090;49.436;8.490;2023-05-10T09:55:37;15.90;99.90
14031;DHT22;7090;49.436;8.490;2023-05-10T09:58:03;16.30;99.90
14031;DHT22;7090;49.436;8.490;2023-05-10T10:00:35;16.50;99.90
14031;DHT22;7090;49.436;8.490;2023-05-10T10:03:02;16.60;99.90
14031;DHT22;7090;49.436;8.490;2023-05-10T10:05:29;16.90;99.90
14031;DHT22;7090;49.436;8.490;2023-05-10T10:07:57;17.20;99.90
14031;DHT22;7090;49.436;8.490;2023-05-10T10:10:24;17.50;99.90
14031;DHT22;7090;49.436;8.490;2023-05-10T10:12:51;17.30;99.90
14031;DHT22;7090;49.436;8.490;2023-05-10T10:15:16;16.90;99.90
14031;DHT22;7090;49.436;8.490;2023-05-10T10:17:43;16.50;99.90
14031;DHT22;7090;49.436;8.490;2023-05-10T10:20:09;16.60;99.90
14031;DHT22;7090;49.436;8.490;2023-05-10T10:22:36;16.60;99.90
14031;DHT22;7090;49.436;8.490;2023-05-10T10:25:03;16.60;99.90
14031;DHT22;7090;49.436;8.490;2023-05-10T10:30:48;16.70;99.90
14031;DHT22;7090;49.436;8.490;2023-05-10T10:33:36;16.90;99.90
14031;DHT22;7090;49.436;8.490;2023-05-10T10:36:05;16.80;99.90
14031;DHT22;7090;49.436;8.490;2023-05-10T10:41:30;16.60;99.90
14031;DHT22;7090;49.436;8.490;2023-05-10T10:44:24;16.60;99.90
14031;DHT22;7090;49.436;8.490;2023-05-10T10:52:24;16.60;99.90
14031;DHT22;7090;49.436;8.490;2023-05-10T10:57:27;17.30;99.90
14031;DHT22;7090;49.436;8.490;2023-05-10T11:00:21;17.90;99.90
14031;DHT22;7090;49.436;8.490;2023-05-10T11:02:52;18.60;99.90
14031;DHT22;7090;49.436;8.490;2023-05-10T11:07:54;19.10;1.00
14031;DHT22;7090;49.436;8.490;2023-05-10T11:10:21;19.20;99.90
14031;DHT22;7090;49.436;8.490;2023-05-10T11:13:00;19.20;1.00
14031;DHT22;7090;49.436;8.490;2023-05-10T11:15:40;19.50;1.00
14031;DHT22;7090;49.436;8.490;2023-05-10T11:18:32;18.50;1.00
14031;DHT22;7090;49.436;8.490;2023-05-10T11:20:59;18.10;1.00
14031;DHT22;7090;49.436;8.490;2023-05-10T11:23:32;18.70;99.90
14031;DHT22;7090;49.436;8.490;2023-05-10T11:25:59;18.70;1.00
14031;DHT22;7090;49.436;8.490;2023-05-10T11:28:26;18.70;99.90
14031;DHT22;7090;49.436;8.490;2023-05-10T11:30:51;18.10;28.90
14031;DHT22;7090;49.436;8.490;2023-05-10T11:33:18;18.30;1.00
14031;DHT22;7090;49.436;8.490;2023-05-10T11:35:45;18.70;7.30
14031;DHT22;7090;49.436;8.490;2023-05-10T11:38:12;19.20;1.00
14031;DHT22;7090;49.436;8.490;2023-05-10T11:40:39;19.70;1.00
14031;DHT22;7090;49.436;8.490;2023-05-10T11:43:05;19.90;99.90
14031;DHT22;7090;49.436;8.490;2023-05-10T11:45:34;19.90;60.70
14031;DHT22;7090;49.436;8.490;2023-05-10T11:48:01;19.80;99.40
14031;DHT22;7090;49.436;8.490;2023-05-10T11:50:27;19.10;99.90
14031;DHT22;7090;49.436;8.490;2023-05-10T11:52:53;18.70;1.00
14031;DHT22;7090;49.436;8.490;2023-05-10T11:55:19;18.30;99.90
14031;DHT22;7090;49.436;8.490;2023-05-10T11:57:45;18.60;99.90
14031;DHT22;7090;49.436;8.490;2023-05-10T12:00:14;18.80;1.00
14031;DHT22;7090;49.436;8.490;2023-05-10T12:02:40;18.90;1.00
14031;DHT22;7090;49.436;8.490;2023-05-10T12:05:06;19.30;1.00
14031;DHT22;7090;49.436;8.490;2023-05-10T12:07:32;19.50;1.00
14031;DHT22;7090;49.436;8.490;2023-05-10T12:10:06;19.20;1.00
14031;DHT22;7090;49.436;8.490;2023-05-10T12:12:46;18.50;1.00
14031;DHT22;7090;49.436;8.490;2023-05-10T12:15:21;18.20;1.00
14031;DHT22;7090;49.436;8.490;2023-05-10T12:17:47;18.50;1.00
14031;DHT22;7090;49.436;8.490;2023-05-10T12:20:24;18.80;1.00
14031;DHT22;7090;49.436;8.490;2023-05-10T12:22:51;18.40;1.00
14031;DHT22;7090;49.436;8.490;2023-05-10T12:25:18;18.50;99.90
14031;DHT22;7090;49.436;8.490;2023-05-10T12:27:58;18.10;1.00
14031;DHT22;7090;49.436;8.490;2023-05-10T12:30:27;17.80;99.90
14031;DHT22;7090;49.436;8.490;2023-05-10T12:32:53;17.70;1.00
14031;DHT22;7090;49.436;8.490;2023-05-10T12:35:19;17.90;1.00
14031;DHT22;7090;49.436;8.490;2023-05-10T12:37:50;18.30;99.90
14031;DHT22;7090;49.436;8.490;2023-05-10T12:40:16;18.40;99.90
14031;DHT22;7090;49.436;8.490;2023-05-10T12:42:42;18.30;1.00
14031;DHT22;7090;49.436;8.490;2023-05-10T12:45:10;18.40;99.90
14031;DHT22;7090;49.436;8.490;2023-05-10T12:47:36;18.00;99.90
14031;DHT22;7090;49.436;8.490;2023-05-10T12:50:02;17.90;99.90
14031;DHT22;7090;49.436;8.490;2023-05-10T12:52:30;17.90;1.00
14031;DHT22;7090;49.436;8.490;2023-05-10T12:54:56;17.90;1.00
14031;DHT22;7090;49.436;8.490;2023-05-10T12:57:22;18.00;1.00
14031;DHT22;7090;49.436;8.490;2023-05-10T12:59:48;18.50;1.00
14031;DHT22;7090;49.436;8.490;2023-05-10T13:02:13;19.00;99.90
14031;DHT22;7090;49.436;8.490;2023-05-10T13:04:40;18.60;99.90
14031;DHT22;7090;49.436;8.490;2023-05-10T13:07:09;18.70;97.70
14031;DHT22;7090;49.436;8.490;2023-05-10T13:09:35;19.00;99.90
14031;DHT22;7090;49.436;8.490;2023-05-10T13:12:01;19.50;99.90
14031;DHT22;7090;49.436;8.490;2023-05-10T13:14:27;20.00;1.00
14031;DHT22;7090;49.436;8.490;2023-05-10T13:16:53;19.60;1.00
14031;DHT22;7090;49.436;8.490;2023-05-10T13:19:19;19.00;1.00
14031;DHT22;7090;49.436;8.490;2023-05-10T13:21:44;18.90;1.00
14031;DHT22;7090;49.436;8.490;2023-05-10T13:24:11;19.20;1.00
14031;DHT22;7090;49.436;8.490;2023-05-10T13:26:39;19.60;1.00
14031;DHT22;7090;49.436;8.490;2023-05-10T13:29:05;19.00;1.00
14031;DHT22;7090;49.436;8.490;2023-05-10T13:31:31;18.50;1.00
14031;DHT22;7090;49.436;8.490;2023-05-10T13:33:56;18.50;1.00
14031;DHT22;7090;49.436;8.490;2023-05-10T13:36:22;18.60;1.00
14031;DHT22;7090;49.436;8.490;2023-05-10T13:38:48;18.30;1.00
14031;DHT22;7090;49.436;8.490;2023-05-10T13:41:13;18.40;1.00
14031;DHT22;7090;49.436;8.490;2023-05-10T13:43:39;18.70;1.00
14031;DHT22;7090;49.436;8.490;2023-05-10T13:46:05;18.70;1.00
14031;DHT22;7090;49.436;8.490;2023-05-10T13:48:31;18.40;1.00
14031;DHT22;7090;49.436;8.490;2023-05-10T13:50:56;18.60;1.00
14031;DHT22;7090;49.436;8.490;2023-05-10T13:53:22;18.80;1.00
14031;DHT22;7090;49.436;8.490;2023-05-10T13:55:48;19.10;1.00
14031;DHT22;7090;49.436;8.490;2023-05-10T13:58:13;19.50;1.00
14031;DHT22;7090;49.436;8.490;2023-05-10T14:00:39;19.70;1.00
14031;DHT22;7090;49.436;8.490;2023-05-10T14:03:04;19.90;1.00
14031;DHT22;7090;49.436;8.490;2023-05-10T14:05:31;19.80;1.00
14031;DHT22;7090;49.436;8.490;2023-05-10T14:07:57;20.00;1.00
14031;DHT22;7090;49.436;8.490;2023-05-10T14:10:22;19.60;1.00
14031;DHT22;7090;49.436;8.490;2023-05-10T14:12:50;19.30;1.00
14031;DHT22;7090;49.436;8.490;2023-05-10T14:15:15;19.00;1.00
14031;DHT22;7090;49.436;8.490;2023-05-10T14:17:41;19.30;1.00
14031;DHT22;7090;49.436;8.490;2023-05-10T14:20:07;19.70;1.00
14031;DHT22;7090;49.436;8.490;2023-05-10T14:22:33;19.40;1.00
14031;DHT22;7090;49.436;8.490;2023-05-10T14:25:00;19.30;1.00
14031;DHT22;7090;49.436;8.490;2023-05-10T14:27:26;19.30;1.00
14031;DHT22;7090;49.436;8.490;2023-05-10T14:29:51;19.50;1.00
14031;DHT22;7090;49.436;8.490;2023-05-10T14:32:18;19.90;1.00
14031;DHT22;7090;49.436;8.490;2023-05-10T14:34:44;20.10;1.00
14031;DHT22;7090;49.436;8.490;2023-05-10T14:37:13;20.00;1.00
14031;DHT22;7090;49.436;8.490;2023-05-10T14:39:39;20.00;1.00
14031;DHT22;7090;49.436;8.490;2023-05-10T14:42:05;20.30;1.00
14031;DHT22;7090;49.436;8.490;2023-05-10T14:44:31;20.70;1.00
14031;DHT22;7090;49.436;8.490;2023-05-10T14:46:56;20.90;1.00
14031;DHT22;7090;49.436;8.490;2023-05-10T14:49:22;20.30;1.00
14031;DHT22;7090;49.436;8.490;2023-05-10T14:51:50;20.40;1.00
14031;DHT22;7090;49.436;8.490;2023-05-10T14:54:15;19.20;1.00
14031;DHT22;7090;49.436;8.490;2023-05-10T14:56:41;19.10;1.00
14031;DHT22;7090;49.436;8.490;2023-05-10T14:59:07;19.60;1.00
14031;DHT22;7090;49.436;8.490;2023-05-10T15:01:33;19.40;1.00
14031;DHT22;7090;49.436;8.490;2023-05-10T15:04:00;19.30;1.00
14031;DHT22;7090;49.436;8.490;2023-05-10T15:06:35;19.50;1.00
14031;DHT22;7090;49.436;8.490;2023-05-10T15:09:02;19.10;1.00
14031;DHT22;7090;49.436;8.490;2023-05-10T15:11:31;19.10;1.00
14031;DHT22;7090;49.436;8.490;2023-05-10T15:13:57;19.40;1.00
14031;DHT22;7090;49.436;8.490;2023-05-10T15:16:23;19.30;1.00
14031;DHT22;7090;49.436;8.490;2023-05-10T15:18:48;19.60;1.00
14031;DHT22;7090;49.436;8.490;2023-05-10T15:21:14;19.80;1.00
14031;DHT22;7090;49.436;8.490;2023-05-10T15:23:40;20.00;1.00
14031;DHT22;7090;49.436;8.490;2023-05-10T15:26:05;20.00;1.00
14031;DHT22;7090;49.436;8.490;2023-05-10T15:28:31;19.90;1.00
14031;DHT22;7090;49.436;8.490;2023-05-10T15:30:56;20.10;1.00
14031;DHT22;7090;49.436;8.490;2023-05-10T15:33:22;20.40;1.00
14031;DHT22;7090;49.436;8.490;2023-05-10T15:35:48;20.70;1.00
14031;DHT22;7090;49.436;8.490;2023-05-10T15:38:14;20.70;1.00
14031;DHT22;7090;49.436;8.490;2023-05-10T15:40:40;21.00;1.00
14031;DHT22;7090;49.436;8.490;2023-05-10T15:43:05;21.20;1.00
14031;DHT22;7090;49.436;8.490;2023-05-10T15:45:31;20.80;1.00
14031;DHT22;7090;49.436;8.490;2023-05-10T15:47:57;20.90;1.00
14031;DHT22;7090;49.436;8.490;2023-05-10T15:50:24;20.70;1.00
14031;DHT22;7090;49.436;8.490;2023-05-10T15:52:50;20.30;1.00
14031;DHT22;7090;49.436;8.490;2023-05-10T15:55:16;20.40;1.00
14031;DHT22;7090;49.436;8.490;2023-05-10T15:57:42;20.70;1.00
14031;DHT22;7090;49.436;8.490;2023-05-10T16:00:09;20.40;1.00
14031;DHT22;7090;49.436;8.490;2023-05-10T16:02:35;20.10;1.00
14031;DHT22;7090;49.436;8.490;2023-05-10T16:05:01;19.80;1.00
14031;DHT22;7090;49.436;8.490;2023-05-10T16:07:26;19.80;1.00
14031;DHT22;7090;49.436;8.490;2023-05-10T16:09:52;19.70;1.00
14031;DHT22;7090;49.436;8.490;2023-05-10T16:12:18;19.60;1.00
14031;DHT22;7090;49.436;8.490;2023-05-10T16:14:43;19.50;1.00
14031;DHT22;7090;49.436;8.490;2023-05-10T16:17:09;19.40;1.00
14031;DHT22;7090;49.436;8.490;2023-05-10T16:19:34;19.60;1.00
14031;DHT22;7090;49.436;8.490;2023-05-10T16:22:00;19.60;1.00